sensor_id;sensor_type;location;lat;lon;timestamp;pressure;altitude;pressure_sealevel;temperature;humidity
79366;BME280;68833;53.160;17.920;2023-05-10T00:00:31;101163.22;;;9.58;47.95
79366;BME280;68833;53.160;17.920;2023-05-10T00:03:09;101164.45;;;9.55;48.17
79366;BME280;68833;53.160;17.920;2023-05-10T00:05:37;101161.45;;;9.54;48.53
79366;BME280;68833;53.160;17.920;2023-05-10T00:08:06;101161.27;;;9.51;48.33
79366;BME280;68833;53.160;17.920;2023-05-10T00:10:33;101161.97;;;9.48;48.24
79366;BME280;68833;53.160;17.920;2023-05-10T00:13:01;101162.83;;;9.45;48.85
79366;BME280;68833;53.160;17.920;2023-05-10T00:15:30;101166.34;;;9.42;48.50
79366;BME280;68833;53.160;17.920;2023-05-10T00:17:58;101162.11;;;9.37;48.89
79366;BME280;68833;53.160;17.920;2023-05-10T00:20:25;101163.66;;;9.33;48.92
79366;BME280;68833;53.160;17.920;2023-05-10T00:22:53;101158.23;;;9.28;49.26
79366;BME280;68833;53.160;17.920;2023-05-10T00:25:21;101155.21;;;9.24;49.75
79366;BME280;68833;53.160;17.920;2023-05-10T00:27:48;101150.64;;;9.20;49.40
79366;BME280;68833;53.160;17.920;2023-05-10T00:30:16;101151.33;;;9.15;49.51
79366;BME280;68833;53.160;17.920;2023-05-10T00:32:47;101147.44;;;9.09;49.46
79366;BME280;68833;53.160;17.920;2023-05-10T00:35:19;101144.45;;;9.04;49.75
79366;BME280;68833;53.160;17.920;2023-05-10T00:38:00;101146.01;;;9.01;50.05
79366;BME280;68833;53.160;17.920;2023-05-10T00:40:30;101138.63;;;8.97;49.62
79366;BME280;68833;53.160;17.920;2023-05-10T00:43:03;101136.49;;;8.91;49.86
79366;BME280;68833;53.160;17.920;2023-05-10T00:45:32;101139.64;;;8.87;49.92
79366;BME280;68833;53.160;17.920;2023-05-10T00:48:02;101134.01;;;8.83;49.62
79366;BME280;68833;53.160;17.920;2023-05-10T00:50:32;101136.77;;;8.78;50.08
79366;BME280;68833;53.160;17.920;2023-05-10T00:53:06;101134.15;;;8.76;50.14
79366;BME280;68833;53.160;17.920;2023-05-10T00:55:37;101131.85;;;8.73;49.67
79366;BME280;68833;53.160;17.920;2023-05-10T00:58:04;101128.87;;;8.71;50.26
79366;BME280;68833;53.160;17.920;2023-05-10T01:00:33;101128.67;;;8.69;50.65
79366;BME280;68833;53.160;17.920;2023-05-10T01:03:02;101127.06;;;8.64;50.15
79366;BME280;68833;53.160;17.920;2023-05-10T01:05:39;101126.34;;;8.58;50.13
79366;BME280;68833;53.160;17.920;2023-05-10T01:08:07;101127.91;;;8.59;51.03
79366;BME280;68833;53.160;17.920;2023-05-10T01:10:38;101127.38;;;8.58;51.43
79366;BME280;68833;53.160;17.920;2023-05-10T01:13:07;101126.84;;;8.55;50.70
79366;BME280;68833;53.160;17.920;2023-05-10T01:15:36;101122.27;;;8.51;51.33
79366;BME280;68833;53.160;17.920;2023-05-10T01:18:07;101122.77;;;8.48;50.76
79366;BME280;68833;53.160;17.920;2023-05-10T01:20:40;101122.54;;;8.44;51.01
79366;BME280;68833;53.160;17.920;2023-05-10T01:23:24;101116.03;;;8.41;51.14
79366;BME280;68833;53.160;17.920;2023-05-10T01:36:23;101105.40;;;8.22;51.95
79366;BME280;68833;53.160;17.920;2023-05-10T01:42:17;101102.73;;;8.16;51.69
79366;BME280;68833;53.160;17.920;2023-05-10T01:45:00;101102.35;;;8.11;51.87
79366;BME280;68833;53.160;17.920;2023-05-10T01:47:50;101098.80;;;8.06;52.00
79366;BME280;68833;53.160;17.920;2023-05-10T01:50:24;101096.85;;;8.02;52.23
79366;BME280;68833;53.160;17.920;2023-05-10T01:53:14;101098.58;;;7.99;52.26
79366;BME280;68833;53.160;17.920;2023-05-10T01:55:52;101098.70;;;7.94;52.19
79366;BME280;68833;53.160;17.920;2023-05-10T01:58:24;101096.56;;;7.89;51.95
79366;BME280;68833;53.160;17.920;2023-05-10T02:00:54;101095.14;;;7.86;52.24
79366;BME280;68833;53.160;17.920;2023-05-10T02:03:24;101093.19;;;7.82;52.41
79366;BME280;68833;53.160;17.920;2023-05-10T02:06:14;101088.08;;;7.79;52.40
79366;BME280;68833;53.160;17.920;2023-05-10T02:08:47;101086.13;;;7.76;52.64
79366;BME280;68833;53.160;17.920;2023-05-10T02:11:18;101085.25;;;7.74;52.74
79366;BME280;68833;53.160;17.920;2023-05-10T02:13:49;101082.79;;;7.72;53.00
79366;BME280;68833;53.160;17.920;2023-05-10T02:16:24;101080.33;;;7.71;53.14
79366;BME280;68833;53.160;17.920;2023-05-10T02:19:19;101078.20;;;7.69;53.23
79366;BME280;68833;53.160;17.920;2023-05-10T02:22:00;101073.46;;;7.66;53.23
79366;BME280;68833;53.160;17.920;2023-05-10T02:24:33;101069.60;;;7.65;53.52
79366;BME280;68833;53.160;17.920;2023-05-10T02:27:07;101070.13;;;7.65;53.60
79366;BME280;68833;53.160;17.920;2023-05-10T02:29:47;101073.27;;;7.64;53.81
79366;BME280;68833;53.160;17.920;2023-05-10T02:32:24;101071.67;;;7.62;53.83
79366;BME280;68833;53.160;17.920;2023-05-10T02:34:54;101069.36;;;7.59;54.14
79366;BME280;68833;53.160;17.920;2023-05-10T02:37:23;101072.67;;;7.57;54.35
79366;BME280;68833;53.160;17.920;2023-05-10T02:40:01;101068.11;;;7.54;54.09
79366;BME280;68833;53.160;17.920;2023-05-10T02:43:06;101069.31;;;7.51;54.19
79366;BME280;68833;53.160;17.920;2023-05-10T02:46:19;101066.13;;;7.47;54.42
79366;BME280;68833;53.160;17.920;2023-05-10T02:49:04;101069.23;;;7.45;54.39
79366;BME280;68833;53.160;17.920;2023-05-10T02:51:43;101070.08;;;7.41;54.23
79366;BME280;68833;53.160;17.920;2023-05-10T02:54:21;101067.77;;;7.39;54.49
79366;BME280;68833;53.160;17.920;2023-05-10T02:57:04;101066.00;;;7.36;54.35
79366;BME280;68833;53.160;17.920;2023-05-10T02:59:33;101064.05;;;7.33;54.79
79366;BME280;68833;53.160;17.920;2023-05-10T03:02:02;101069.44;;;7.30;54.78
79366;BME280;68833;53.160;17.920;2023-05-10T03:04:32;101072.56;;;7.29;54.67
79366;BME280;68833;53.160;17.920;2023-05-10T03:07:09;101070.10;;;7.27;54.88
79366;BME280;68833;53.160;17.920;2023-05-10T03:09:37;101073.24;;;7.26;54.77
79366;BME280;68833;53.160;17.920;2023-05-10T03:12:41;101077.78;;;7.25;54.71
79366;BME280;68833;53.160;17.920;2023-05-10T03:18:37;101067.59;;;7.20;54.94
79366;BME280;68833;53.160;17.920;2023-05-10T03:21:11;101068.98;;;7.20;55.13
79366;BME280;68833;53.160;17.920;2023-05-10T03:24:02;101069.86;;;7.21;55.58
79366;BME280;68833;53.160;17.920;2023-05-10T03:26:33;101066.02;;;7.21;55.28
79366;BME280;68833;53.160;17.920;2023-05-10T03:29:28;101070.92;;;7.23;55.39
79366;BME280;68833;53.160;17.920;2023-05-10T03:31:59;101070.23;;;7.23;55.22
79366;BME280;68833;53.160;17.920;2023-05-10T03:34:44;101064.80;;;7.21;55.18
79366;BME280;68833;53.160;17.920;2023-05-10T03:37:12;101063.39;;;7.20;55.38
79366;BME280;68833;53.160;17.920;2023-05-10T03:39:46;101064.61;;;7.19;55.53
79366;BME280;68833;53.160;17.920;2023-05-10T03:42:21;101062.69;;;7.19;55.47
79366;BME280;68833;53.160;17.920;2023-05-10T03:44:53;101063.72;;;7.19;55.20
79366;BME280;68833;53.160;17.920;2023-05-10T03:47:28;101065.64;;;7.18;55.64
79366;BME280;68833;53.160;17.920;2023-05-10T03:50:01;101064.75;;;7.17;55.68
79366;BME280;68833;53.160;17.920;2023-05-10T03:52:40;101064.75;;;7.16;55.48
79366;BME280;68833;53.160;17.920;2023-05-10T03:55:15;101062.64;;;7.15;55.80
79366;BME280;68833;53.160;17.920;2023-05-10T03:57:43;101065.98;;;7.16;56.04
79366;BME280;68833;53.160;17.920;2023-05-10T04:00:12;101061.80;;;7.18;55.72
79366;BME280;68833;53.160;17.920;2023-05-10T04:02:42;101062.33;;;7.19;55.52
79366;BME280;68833;53.160;17.920;2023-05-10T04:05:14;101059.89;;;7.19;55.46
79366;BME280;68833;53.160;17.920;2023-05-10T04:07:43;101060.79;;;7.20;55.50
79366;BME280;68833;53.160;17.920;2023-05-10T04:10:11;101059.73;;;7.22;55.42
79366;BME280;68833;53.160;17.920;2023-05-10T04:12:39;101062.03;;;7.24;55.34
79366;BME280;68833;53.160;17.920;2023-05-10T04:15:07;101059.09;;;7.27;55.45
79366;BME280;68833;53.160;17.920;2023-05-10T04:17:35;101064.55;;;7.30;55.46
79366;BME280;68833;53.160;17.920;2023-05-10T04:20:08;101057.59;;;7.32;55.61
79366;BME280;68833;53.160;17.920;2023-05-10T04:22:36;101061.10;;;7.35;55.39
79366;BME280;68833;53.160;17.920;2023-05-10T04:25:04;101058.15;;;7.39;55.27
79366;BME280;68833;53.160;17.920;2023-05-10T04:27:35;101053.83;;;7.41;54.98
79366;BME280;68833;53.160;17.920;2023-05-10T04:30:02;101058.75;;;7.45;54.97
79366;BME280;68833;53.160;17.920;2023-05-10T04:32:30;101056.35;;;7.49;54.94
79366;BME280;68833;53.160;17.920;2023-05-10T04:34:58;101058.65;;;7.53;54.86
79366;BME280;68833;53.160;17.920;2023-05-10T04:37:30;101057.99;;;7.57;54.72
79366;BME280;68833;53.160;17.920;2023-05-10T04:39:59;101052.63;;;7.63;54.62
79366;BME280;68833;53.160;17.920;2023-05-10T04:42:26;101052.31;;;7.66;54.44
79366;BME280;68833;53.160;17.920;2023-05-10T04:44:55;101047.44;;;7.69;54.22
79366;BME280;68833;53.160;17.920;2023-05-10T04:47:25;101048.88;;;7.75;54.00
79366;BME280;68833;53.160;17.920;2023-05-10T04:49:52;101047.16;;;7.79;53.94
79366;BME280;68833;53.160;17.920;2023-05-10T04:52:19;101045.29;;;7.83;53.90
79366;BME280;68833;53.160;17.920;2023-05-10T04:54:46;101049.69;;;7.88;53.39
79366;BME280;68833;53.160;17.920;2023-05-10T04:57:14;101051.48;;;7.93;53.54
79366;BME280;68833;53.160;17.920;2023-05-10T04:59:43;101049.77;;;8.00;53.60
79366;BME280;68833;53.160;17.920;2023-05-10T05:02:11;101047.91;;;8.05;53.41
79366;BME280;68833;53.160;17.920;2023-05-10T05:04:38;101045.31;;;8.11;53.55
79366;BME280;68833;53.160;17.920;2023-05-10T05:07:05;101043.08;;;8.18;53.16
79366;BME280;68833;53.160;17.920;2023-05-10T05:09:33;101042.77;;;8.25;53.37
79366;BME280;68833;53.160;17.920;2023-05-10T05:12:00;101043.88;;;8.34;52.99
79366;BME280;68833;53.160;17.920;2023-05-10T05:14:27;101043.05;;;8.41;53.12
79366;BME280;68833;53.160;17.920;2023-05-10T05:16:54;101039.09;;;8.49;52.77
79366;BME280;68833;53.160;17.920;2023-05-10T05:19:22;101039.48;;;8.57;52.78
79366;BME280;68833;53.160;17.920;2023-05-10T05:21:49;101041.80;;;8.65;52.80
79366;BME280;68833;53.160;17.920;2023-05-10T05:24:17;101044.81;;;8.74;52.08
79366;BME280;68833;53.160;17.920;2023-05-10T05:26:44;101040.83;;;8.84;51.91
79366;BME280;68833;53.160;17.920;2023-05-10T05:29:17;101042.09;;;8.94;51.93
79366;BME280;68833;53.160;17.920;2023-05-10T05:31:44;101044.57;;;9.04;51.94
79366;BME280;68833;53.160;17.920;2023-05-10T05:34:11;101041.96;;;9.13;51.62
79366;BME280;68833;53.160;17.920;2023-05-10T05:36:46;101043.58;;;9.25;50.91
79366;BME280;68833;53.160;17.920;2023-05-10T05:39:19;101048.49;;;9.38;51.27
79366;BME280;68833;53.160;17.920;2023-05-10T05:42:08;101045.90;;;9.51;51.15
79366;BME280;68833;53.160;17.920;2023-05-10T05:44:44;101041.17;;;9.64;50.95
79366;BME280;68833;53.160;17.920;2023-05-10T05:47:23;101039.59;;;9.78;50.44
79366;BME280;68833;53.160;17.920;2023-05-10T05:49:50;101039.75;;;9.94;50.38
79366;BME280;68833;53.160;17.920;2023-05-10T05:52:17;101035.35;;;10.10;49.93
79366;BME280;68833;53.160;17.920;2023-05-10T05:54:44;101036.20;;;10.27;49.59
79366;BME280;68833;53.160;17.920;2023-05-10T05:57:14;101033.73;;;10.45;49.03
79366;BME280;68833;53.160;17.920;2023-05-10T05:59:44;101030.51;;;10.65;48.54
79366;BME280;68833;53.160;17.920;2023-05-10T06:02:14;101031.31;;;10.83;48.26
79366;BME280;68833;53.160;17.920;2023-05-10T06:04:41;101027.17;;;11.00;47.81
79366;BME280;68833;53.160;17.920;2023-05-10T06:07:08;101022.86;;;11.16;47.09
79366;BME280;68833;53.160;17.920;2023-05-10T06:09:35;101025.93;;;11.32;47.38
79366;BME280;68833;53.160;17.920;2023-05-10T06:12:02;101028.64;;;11.46;47.11
79366;BME280;68833;53.160;17.920;2023-05-10T06:14:32;101030.11;;;11.62;46.34
79366;BME280;68833;53.160;17.920;2023-05-10T06:16:59;101026.66;;;11.73;45.89
79366;BME280;68833;53.160;17.920;2023-05-10T06:19:26;101037.27;;;11.90;45.15
79366;BME280;68833;53.160;17.920;2023-05-10T06:21:53;101034.36;;;12.05;44.67
79366;BME280;68833;53.160;17.920;2023-05-10T06:24:20;101037.92;;;12.18;45.07
79366;BME280;68833;53.160;17.920;2023-05-10T06:26:48;101038.14;;;12.30;44.20
79366;BME280;68833;53.160;17.920;2023-05-10T06:29:16;101036.79;;;12.42;43.17
79366;BME280;68833;53.160;17.920;2023-05-10T06:31:44;101034.73;;;12.51;43.02
79366;BME280;68833;53.160;17.920;2023-05-10T06:34:11;101035.16;;;12.60;43.05
79366;BME280;68833;53.160;17.920;2023-05-10T06:36:41;101034.33;;;12.71;42.61
79366;BME280;68833;53.160;17.920;2023-05-10T06:39:09;101033.70;;;12.79;42.04
79366;BME280;68833;53.160;17.920;2023-05-10T06:41:38;101034.81;;;12.89;41.87
79366;BME280;68833;53.160;17.920;2023-05-10T06:44:05;101025.69;;;12.99;41.29
79366;BME280;68833;53.160;17.920;2023-05-10T06:46:32;101023.60;;;13.10;41.38
79366;BME280;68833;53.160;17.920;2023-05-10T06:48:59;101027.99;;;13.23;41.40
79366;BME280;68833;53.160;17.920;2023-05-10T06:51:26;101028.34;;;13.36;40.86
79366;BME280;68833;53.160;17.920;2023-05-10T06:53:53;101026.25;;;13.48;40.78
79366;BME280;68833;53.160;17.920;2023-05-10T06:56:21;101025.16;;;13.61;40.21
79366;BME280;68833;53.160;17.920;2023-05-10T06:58:48;101029.09;;;13.70;39.43
79366;BME280;68833;53.160;17.920;2023-05-10T07:01:15;101026.80;;;13.78;39.44
79366;BME280;68833;53.160;17.920;2023-05-10T07:03:43;101023.46;;;13.88;38.92
79366;BME280;68833;53.160;17.920;2023-05-10T07:06:10;101032.14;;;13.97;38.43
79366;BME280;68833;53.160;17.920;2023-05-10T07:08:37;101025.60;;;14.08;38.34
79366;BME280;68833;53.160;17.920;2023-05-10T07:11:06;101025.16;;;14.22;38.34
79366;BME280;68833;53.160;17.920;2023-05-10T07:13:37;101019.95;;;14.36;37.85
79366;BME280;68833;53.160;17.920;2023-05-10T07:16:05;101021.30;;;14.47;37.83
79366;BME280;68833;53.160;17.920;2023-05-10T07:18:33;101020.53;;;14.60;38.17
79366;BME280;68833;53.160;17.920;2023-05-10T07:21:00;101018.02;;;14.71;37.80
79366;BME280;68833;53.160;17.920;2023-05-10T07:23:28;101012.14;;;14.82;37.61
79366;BME280;68833;53.160;17.920;2023-05-10T07:25:55;101013.70;;;14.91;36.24
79366;BME280;68833;53.160;17.920;2023-05-10T07:28:24;101013.00;;;15.00;36.76
79366;BME280;68833;53.160;17.920;2023-05-10T07:30:51;101013.63;;;15.11;36.54
79366;BME280;68833;53.160;17.920;2023-05-10T07:33:18;101012.70;;;15.20;36.09
79366;BME280;68833;53.160;17.920;2023-05-10T07:35:45;101016.55;;;15.30;35.93
79366;BME280;68833;53.160;17.920;2023-05-10T07:38:12;101018.81;;;15.40;35.45
79366;BME280;68833;53.160;17.920;2023-05-10T07:40:39;101017.76;;;15.47;35.12
79366;BME280;68833;53.160;17.920;2023-05-10T07:43:06;101017.77;;;15.54;35.46
79366;BME280;68833;53.160;17.920;2023-05-10T07:45:33;101016.26;;;15.65;35.43
79366;BME280;68833;53.160;17.920;2023-05-10T07:48:02;101016.54;;;15.75;34.63
79366;BME280;68833;53.160;17.920;2023-05-10T07:50:29;101013.55;;;15.82;34.60
79366;BME280;68833;53.160;17.920;2023-05-10T07:52:56;101014.83;;;15.88;34.87
79366;BME280;68833;53.160;17.920;2023-05-10T07:55:24;101015.18;;;15.95;35.03
79366;BME280;68833;53.160;17.920;2023-05-10T07:57:51;101013.00;;;16.04;34.45
79366;BME280;68833;53.160;17.920;2023-05-10T08:00:19;101016.70;;;16.11;33.92
79366;BME280;68833;53.160;17.920;2023-05-10T08:02:47;101015.82;;;16.11;33.62
79366;BME280;68833;53.160;17.920;2023-05-10T08:05:14;101018.45;;;16.12;33.90
79366;BME280;68833;53.160;17.920;2023-05-10T08:07:41;101016.76;;;16.16;33.38
79366;BME280;68833;53.160;17.920;2023-05-10T08:10:09;101013.75;;;16.16;33.49
79366;BME280;68833;53.160;17.920;2023-05-10T08:12:41;101014.15;;;16.20;33.09
79366;BME280;68833;53.160;17.920;2023-05-10T08:15:08;101015.45;;;16.24;33.16
79366;BME280;68833;53.160;17.920;2023-05-10T08:17:36;101014.85;;;16.27;32.84
79366;BME280;68833;53.160;17.920;2023-05-10T08:20:03;101013.02;;;16.29;32.87
79366;BME280;68833;53.160;17.920;2023-05-10T08:22:30;101012.34;;;16.34;32.67
79366;BME280;68833;53.160;17.920;2023-05-10T08:24:57;101012.52;;;16.41;32.89
79366;BME280;68833;53.160;17.920;2023-05-10T08:27:24;101006.20;;;16.51;32.46
79366;BME280;68833;53.160;17.920;2023-05-10T08:29:51;101007.48;;;16.56;32.14
79366;BME280;68833;53.160;17.920;2023-05-10T08:32:18;101011.77;;;16.61;32.67
79366;BME280;68833;53.160;17.920;2023-05-10T08:34:45;101010.46;;;16.69;32.57
79366;BME280;68833;53.160;17.920;2023-05-10T08:37:12;101005.77;;;16.78;32.66
79366;BME280;68833;53.160;17.920;2023-05-10T08:39:40;101000.16;;;16.89;32.49
79366;BME280;68833;53.160;17.920;2023-05-10T08:42:07;100999.08;;;16.95;31.75
79366;BME280;68833;53.160;17.920;2023-05-10T08:44:36;101005.13;;;17.00;31.28
79366;BME280;68833;53.160;17.920;2023-05-10T08:47:06;101004.09;;;17.05;31.86
79366;BME280;68833;53.160;17.920;2023-05-10T08:49:34;101006.13;;;17.14;32.02
79366;BME280;68833;53.160;17.920;2023-05-10T08:52:03;101006.89;;;17.24;31.96
79366;BME280;68833;53.160;17.920;2023-05-10T08:54:32;101011.11;;;17.31;31.97
79366;BME280;68833;53.160;17.920;2023-05-10T08:57:00;101011.91;;;17.33;31.65
79366;BME280;68833;53.160;17.920;2023-05-10T08:59:27;101007.39;;;17.36;31.12
79366;BME280;68833;53.160;17.920;2023-05-10T09:01:57;101011.65;;;17.36;31.53
79366;BME280;68833;53.160;17.920;2023-05-10T09:04:25;101010.70;;;17.38;31.64
79366;BME280;68833;53.160;17.920;2023-05-10T09:06:54;101006.98;;;17.49;31.83
79366;BME280;68833;53.160;17.920;2023-05-10T09:09:21;101013.65;;;17.57;30.60
79366;BME280;68833;53.160;17.920;2023-05-10T09:11:48;101012.89;;;17.58;30.34
79366;BME280;68833;53.160;17.920;2023-05-10T09:14:16;101008.16;;;17.61;30.84
79366;BME280;68833;53.160;17.920;2023-05-10T09:16:44;101012.23;;;17.62;29.80
79366;BME280;68833;53.160;17.920;2023-05-10T09:19:11;101002.77;;;17.58;30.61
79366;BME280;68833;53.160;17.920;2023-05-10T09:21:38;101000.31;;;17.62;30.68
79366;BME280;68833;53.160;17.920;2023-05-10T09:24:07;100997.72;;;17.71;31.26
79366;BME280;68833;53.160;17.920;2023-05-10T09:26:35;100995.77;;;17.81;30.53
79366;BME280;68833;53.160;17.920;2023-05-10T09:29:03;100997.55;;;17.86;30.00
79366;BME280;68833;53.160;17.920;2023-05-10T09:31:50;100997.11;;;17.89;30.10
79366;BME280;68833;53.160;17.920;2023-05-10T09:34:32;101001.91;;;17.95;30.41
79366;BME280;68833;53.160;17.920;2023-05-10T09:37:02;100992.83;;;18.00;30.57
79366;BME280;68833;53.160;17.920;2023-05-10T09:39:36;101003.05;;;18.08;29.89
79366;BME280;68833;53.160;17.920;2023-05-10T09:42:08;100999.92;;;18.12;29.60
79366;BME280;68833;53.160;17.920;2023-05-10T09:44:38;100998.70;;;18.15;29.53
79366;BME280;68833;53.160;17.920;2023-05-10T09:47:07;100998.33;;;18.16;29.75
79366;BME280;68833;53.160;17.920;2023-05-10T09:49:34;100997.73;;;18.18;29.40
79366;BME280;68833;53.160;17.920;2023-05-10T09:52:03;100997.35;;;18.23;29.70
79366;BME280;68833;53.160;17.920;2023-05-10T09:54:31;101002.04;;;18.27;29.63
79366;BME280;68833;53.160;17.920;2023-05-10T09:56:58;100992.35;;;18.29;29.63
79366;BME280;68833;53.160;17.920;2023-05-10T09:59:26;100990.23;;;18.39;30.03
79366;BME280;68833;53.160;17.920;2023-05-10T10:03:42;100995.67;;;18.50;28.89
79366;BME280;68833;53.160;17.920;2023-05-10T10:06:10;100988.63;;;18.48;29.55
79366;BME280;68833;53.160;17.920;2023-05-10T10:08:37;100977.90;;;18.54;29.55
79366;BME280;68833;53.160;17.920;2023-05-10T10:11:04;100976.55;;;18.62;28.92
79366;BME280;68833;53.160;17.920;2023-05-10T10:13:32;100988.55;;;18.64;29.21
79366;BME280;68833;53.160;17.920;2023-05-10T10:15:59;100978.33;;;18.62;29.03
79366;BME280;68833;53.160;17.920;2023-05-10T10:18:26;100971.47;;;18.60;29.36
79366;BME280;68833;53.160;17.920;2023-05-10T10:20:55;100971.62;;;18.61;28.94
79366;BME280;68833;53.160;17.920;2023-05-10T10:23:23;100963.45;;;18.61;28.70
79366;BME280;68833;53.160;17.920;2023-05-10T10:25:50;100974.23;;;18.62;28.73
79366;BME280;68833;53.160;17.920;2023-05-10T10:28:29;100970.44;;;18.59;28.15
79366;BME280;68833;53.160;17.920;2023-05-10T10:31:13;100966.69;;;18.59;28.73
79366;BME280;68833;53.160;17.920;2023-05-10T10:34:08;100965.27;;;18.64;28.35
79366;BME280;68833;53.160;17.920;2023-05-10T10:36:46;100965.55;;;18.66;28.64
79366;BME280;68833;53.160;17.920;2023-05-10T10:39:16;100960.34;;;18.67;28.54
79366;BME280;68833;53.160;17.920;2023-05-10T10:41:54;100955.52;;;18.68;28.18
79366;BME280;68833;53.160;17.920;2023-05-10T10:52:23;100947.61;;;18.74;28.19
79366;BME280;68833;53.160;17.920;2023-05-10T10:57:53;100949.14;;;18.80;28.66
79366;BME280;68833;53.160;17.920;2023-05-10T11:00:28;100943.02;;;18.88;28.58
79366;BME280;68833;53.160;17.920;2023-05-10T11:03:11;100946.34;;;18.98;28.68
79366;BME280;68833;53.160;17.920;2023-05-10T11:05:41;100946.91;;;19.02;28.29
79366;BME280;68833;53.160;17.920;2023-05-10T11:08:26;100942.03;;;19.04;28.36
79366;BME280;68833;53.160;17.920;2023-05-10T11:11:01;100945.65;;;19.02;28.09
79366;BME280;68833;53.160;17.920;2023-05-10T11:13:41;100945.20;;;19.00;28.56
79366;BME280;68833;53.160;17.920;2023-05-10T11:16:23;100942.56;;;19.04;28.35
79366;BME280;68833;53.160;17.920;2023-05-10T11:19:05;100941.17;;;19.08;28.22
79366;BME280;68833;53.160;17.920;2023-05-10T11:21:44;100943.10;;;19.09;28.42
79366;BME280;68833;53.160;17.920;2023-05-10T11:24:20;100943.23;;;19.09;28.43
79366;BME280;68833;53.160;17.920;2023-05-10T11:26:50;100941.77;;;19.06;28.09
79366;BME280;68833;53.160;17.920;2023-05-10T11:29:17;100936.66;;;19.00;27.94
79366;BME280;68833;53.160;17.920;2023-05-10T11:31:45;100937.34;;;19.01;27.81
79366;BME280;68833;53.160;17.920;2023-05-10T11:34:30;100943.75;;;19.01;28.27
79366;BME280;68833;53.160;17.920;2023-05-10T11:37:00;100930.78;;;19.05;28.73
79366;BME280;68833;53.160;17.920;2023-05-10T11:39:28;100931.91;;;19.12;28.81
79366;BME280;68833;53.160;17.920;2023-05-10T11:41:56;100929.61;;;19.20;29.10
79366;BME280;68833;53.160;17.920;2023-05-10T11:44:29;100935.73;;;19.27;28.98
79366;BME280;68833;53.160;17.920;2023-05-10T11:47:01;100934.71;;;19.30;28.48
79366;BME280;68833;53.160;17.920;2023-05-10T11:49:28;100932.87;;;19.32;28.78
79366;BME280;68833;53.160;17.920;2023-05-10T11:52:06;100928.47;;;19.35;28.74
79366;BME280;68833;53.160;17.920;2023-05-10T11:54:33;100929.79;;;19.42;28.35
79366;BME280;68833;53.160;17.920;2023-05-10T11:57:04;100925.92;;;19.49;28.33
79366;BME280;68833;53.160;17.920;2023-05-10T11:59:31;100930.54;;;19.54;28.24
79366;BME280;68833;53.160;17.920;2023-05-10T12:01:58;100930.13;;;19.55;28.01
79366;BME280;68833;53.160;17.920;2023-05-10T12:04:26;100934.95;;;19.59;27.72
79366;BME280;68833;53.160;17.920;2023-05-10T12:06:54;100925.77;;;19.57;27.81
79366;BME280;68833;53.160;17.920;2023-05-10T12:09:22;100925.64;;;19.56;27.97
79366;BME280;68833;53.160;17.920;2023-05-10T12:11:49;100924.66;;;19.54;27.83
79366;BME280;68833;53.160;17.920;2023-05-10T12:14:16;100915.71;;;19.50;27.35
79366;BME280;68833;53.160;17.920;2023-05-10T12:16:43;100925.36;;;19.50;27.48
79366;BME280;68833;53.160;17.920;2023-05-10T12:19:10;100918.91;;;19.42;27.49
79366;BME280;68833;53.160;17.920;2023-05-10T12:21:37;100920.59;;;19.36;27.52
79366;BME280;68833;53.160;17.920;2023-05-10T12:24:05;100918.06;;;19.32;27.32
79366;BME280;68833;53.160;17.920;2023-05-10T12:26:35;100927.01;;;19.31;27.15
79366;BME280;68833;53.160;17.920;2023-05-10T12:29:18;100929.42;;;19.29;27.28
79366;BME280;68833;53.160;17.920;2023-05-10T12:31:53;100918.23;;;19.24;27.10
79366;BME280;68833;53.160;17.920;2023-05-10T12:34:24;100924.19;;;19.22;27.26
79366;BME280;68833;53.160;17.920;2023-05-10T12:36:52;100925.27;;;19.22;27.73
79366;BME280;68833;53.160;17.920;2023-05-10T12:39:20;100919.52;;;19.23;27.58
79366;BME280;68833;53.160;17.920;2023-05-10T12:41:47;100923.50;;;19.26;27.59
79366;BME280;68833;53.160;17.920;2023-05-10T12:44:14;100920.35;;;19.29;27.73
79366;BME280;68833;53.160;17.920;2023-05-10T12:46:41;100925.57;;;19.36;27.77
79366;BME280;68833;53.160;17.920;2023-05-10T12:49:08;100923.73;;;19.42;27.57
79366;BME280;68833;53.160;17.920;2023-05-10T12:51:35;100919.95;;;19.47;27.67
79366;BME280;68833;53.160;17.920;2023-05-10T12:54:04;100923.23;;;19.50;26.87
79366;BME280;68833;53.160;17.920;2023-05-10T12:56:31;100912.96;;;19.48;27.35
79366;BME280;68833;53.160;17.920;2023-05-10T12:58:58;100914.80;;;19.47;26.97
79366;BME280;68833;53.160;17.920;2023-05-10T13:01:25;100919.24;;;19.47;27.15
79366;BME280;68833;53.160;17.920;2023-05-10T13:03:52;100919.85;;;19.50;27.37
79366;BME280;68833;53.160;17.920;2023-05-10T13:06:19;100914.46;;;19.46;27.02
79366;BME280;68833;53.160;17.920;2023-05-10T13:08:47;100912.42;;;19.44;27.06
79366;BME280;68833;53.160;17.920;2023-05-10T13:11:13;100910.87;;;19.43;26.93
79366;BME280;68833;53.160;17.920;2023-05-10T13:13:43;100910.58;;;19.37;26.33
79366;BME280;68833;53.160;17.920;2023-05-10T13:16:11;100914.24;;;19.30;26.64
79366;BME280;68833;53.160;17.920;2023-05-10T13:18:38;100903.71;;;19.27;27.16
79366;BME280;68833;53.160;17.920;2023-05-10T13:21:05;100901.80;;;19.25;27.38
79366;BME280;68833;53.160;17.920;2023-05-10T13:23:32;100903.00;;;19.27;27.00
79366;BME280;68833;53.160;17.920;2023-05-10T13:25:59;100904.48;;;19.25;27.40
79366;BME280;68833;53.160;17.920;2023-05-10T13:28:26;100891.32;;;19.29;27.58
79366;BME280;68833;53.160;17.920;2023-05-10T13:30:53;100887.52;;;19.30;27.41
79366;BME280;68833;53.160;17.920;2023-05-10T13:33:20;100898.11;;;19.29;27.38